createdAt,value
2019-01-08T00:01:19.741Z,70.09
2019-01-08T00:03:53.357Z,69.97
2019-01-08T00:06:26.723Z,69.79
2019-01-08T00:09:00.099Z,69.79
2019-01-08T00:11:33.485Z,69.79
2019-01-08T00:14:07.002Z,69.78
2019-01-08T00:16:59.846Z,69.40
2019-01-08T00:19:33.478Z,69.74
2019-01-08T00:22:07.008Z,69.67
2019-01-08T00:24:40.629Z,69.42
2019-01-08T00:27:14.163Z,69.73
2019-01-08T00:29:47.865Z,69.94
2019-01-08T00:32:21.385Z,69.83
2019-01-08T00:34:55.050Z,69.96
2019-01-08T00:37:28.579Z,69.80
2019-01-08T00:40:02.228Z,70.00
2019-01-08T00:42:35.747Z,69.97
2019-01-08T00:45:09.370Z,70.07
2019-01-08T00:47:42.951Z,69.98
2019-01-08T00:50:16.509Z,69.76
2019-01-08T00:52:50.020Z,69.79
2019-01-08T00:55:23.747Z,69.81
2019-01-08T00:57:57.260Z,69.80
2019-01-08T01:00:30.883Z,69.72
2019-01-08T01:03:04.412Z,69.97
2019-01-08T01:05:38.113Z,69.92
2019-01-08T01:08:11.713Z,69.82
2019-01-08T01:10:45.273Z,69.91
2019-01-08T01:16:31.762Z,69.68
2019-01-08T01:19:05.167Z,69.60
2019-01-08T01:21:38.674Z,69.59
2019-01-08T01:24:12.163Z,69.55
2019-01-08T01:29:24.808Z,69.78
2019-01-08T01:31:58.381Z,69.65
2019-01-08T01:34:31.886Z,69.58
2019-01-08T01:37:05.516Z,69.43
2019-01-08T01:39:39.025Z,69.27
2019-01-08T01:42:12.653Z,69.29
2019-01-08T01:44:46.165Z,69.30
2019-01-08T01:47:19.794Z,69.22
2019-01-08T01:49:53.318Z,69.28
2019-01-08T01:52:26.899Z,68.56
2019-01-08T01:55:00.493Z,69.31
2019-01-08T01:57:34.206Z,69.17
2019-01-08T02:00:28.493Z,69.09
2019-01-08T02:03:02.112Z,69.36
2019-01-08T02:05:35.741Z,69.27
2019-01-08T02:08:09.422Z,69.18
2019-01-08T02:10:42.967Z,69.14
2019-01-08T02:13:16.659Z,69.39
2019-01-08T02:15:50.272Z,69.60
2019-01-08T02:18:23.910Z,69.87
2019-01-08T02:20:57.484Z,69.49
2019-01-08T02:23:31.181Z,69.54
2019-01-08T02:26:04.677Z,69.96
2019-01-08T02:28:38.424Z,69.33
2019-01-08T02:31:11.994Z,68.94
2019-01-08T02:33:45.625Z,69.41
2019-01-08T02:36:19.233Z,69.28
2019-01-08T02:38:52.975Z,69.30
2019-01-08T02:41:26.662Z,69.38
2019-01-08T02:44:00.453Z,69.20
2019-01-08T02:46:34.163Z,69.39
2019-01-08T02:49:09.477Z,69.54
2019-01-08T02:51:43.079Z,69.55
2019-01-08T02:54:16.730Z,69.38
2019-01-08T02:56:50.319Z,69.50
2019-01-08T02:59:25.176Z,69.52
2019-01-08T03:01:59.369Z,69.53
2019-01-08T03:04:33.154Z,69.44
2019-01-08T03:07:06.792Z,69.39
2019-01-08T03:09:40.525Z,69.22
2019-01-08T03:12:14.107Z,69.39
2019-01-08T03:14:47.747Z,69.09
2019-01-08T03:17:21.367Z,69.10
2019-01-08T03:19:55.091Z,69.29
2019-01-08T03:22:28.612Z,69.18
2019-01-08T03:25:02.170Z,69.14
2019-01-08T03:27:35.752Z,69.17
2019-01-08T03:30:09.588Z,69.39
2019-01-08T03:32:43.177Z,69.46
2019-01-08T03:35:16.810Z,69.54
2019-01-08T03:37:50.398Z,68.36
2019-01-08T03:40:24.123Z,69.48
2019-01-08T03:42:57.637Z,69.17
2019-01-08T03:45:31.387Z,69.11
2019-01-08T03:48:04.972Z,69.30
2019-01-08T03:50:38.593Z,69.32
2019-01-08T03:53:12.196Z,69.62
2019-01-08T03:55:45.772Z,69.37
2019-01-08T03:58:19.361Z,69.60
2019-01-08T04:00:52.995Z,69.45
2019-01-08T04:03:26.582Z,69.49
2019-01-08T04:06:00.282Z,69.42
2019-01-08T04:08:33.877Z,69.27
2019-01-08T04:11:07.507Z,69.56
2019-01-08T04:13:41.103Z,69.49
2019-01-08T04:16:14.834Z,69.89
2019-01-08T04:18:48.451Z,69.24
2019-01-08T04:21:22.190Z,69.49
2019-01-08T04:23:55.782Z,69.01
2019-01-08T04:26:29.420Z,69.65
2019-01-08T04:29:03.452Z,69.67
2019-01-08T04:31:37.092Z,69.79
2019-01-08T04:34:10.695Z,68.90
2019-01-08T04:36:44.365Z,69.67
2019-01-08T04:39:17.938Z,69.62
2019-01-08T04:41:51.673Z,69.57
2019-01-08T04:44:25.268Z,69.19
2019-01-08T04:46:58.927Z,69.56
2019-01-08T04:49:32.507Z,69.29
2019-01-08T04:52:06.146Z,69.29
2019-01-08T04:54:40.175Z,68.85
2019-01-08T04:57:13.875Z,69.13
2019-01-08T04:59:47.563Z,69.53
2019-01-08T05:02:21.274Z,69.71
2019-01-08T05:04:54.883Z,69.26
2019-01-08T05:07:28.500Z,69.89
2019-01-08T05:10:02.179Z,70.03
2019-01-08T05:12:35.803Z,69.77
2019-01-08T05:15:09.390Z,69.60
2019-01-08T05:17:43.022Z,69.73
2019-01-08T05:20:16.610Z,70.14
2019-01-08T05:22:50.242Z,70.46
2019-01-08T05:25:23.816Z,70.49
2019-01-08T05:27:57.470Z,70.04
2019-01-08T05:30:31.064Z,70.08
2019-01-08T05:33:04.740Z,70.18
2019-01-08T05:35:38.354Z,70.06
2019-01-08T05:38:11.979Z,70.27
2019-01-08T05:40:45.574Z,70.05
2019-01-08T05:43:19.145Z,69.95
2019-01-08T05:45:52.741Z,70.13
2019-01-08T05:48:26.505Z,69.96
2019-01-08T05:51:00.085Z,69.91
2019-01-08T05:53:33.924Z,70.51
2019-01-08T05:56:07.583Z,69.76
2019-01-08T05:58:41.215Z,69.47
2019-01-08T06:01:14.928Z,70.03
2019-01-08T06:03:48.527Z,70.23
2019-01-08T06:06:22.191Z,69.96
2019-01-08T06:08:55.721Z,70.43
2019-01-08T06:11:29.340Z,70.10
2019-01-08T06:14:02.866Z,70.18
2019-01-08T06:16:36.625Z,70.06
2019-01-08T06:19:10.214Z,69.90
2019-01-08T06:21:43.916Z,69.85
2019-01-08T06:24:17.512Z,69.68
2019-01-08T06:26:51.143Z,70.33
2019-01-08T06:29:24.752Z,70.01
2019-01-08T06:31:58.384Z,69.88
2019-01-08T06:34:31.993Z,69.87
2019-01-08T06:37:05.639Z,70.46
2019-01-08T06:39:39.227Z,70.26
2019-01-08T06:42:12.875Z,70.00
2019-01-08T06:44:46.444Z,70.17
2019-01-08T06:47:20.067Z,70.41
2019-01-08T06:49:53.670Z,70.52
2019-01-08T06:52:27.273Z,69.94
2019-01-08T06:55:00.882Z,69.79
2019-01-08T06:57:34.564Z,70.55
2019-01-08T07:03:27.276Z,70.12
2019-01-08T07:06:00.730Z,69.99
2019-01-08T07:08:34.119Z,70.26
2019-01-08T07:11:07.526Z,70.51
2019-01-08T07:13:40.971Z,70.45
2019-01-08T07:16:14.371Z,70.05
2019-01-08T07:18:47.840Z,70.99
2019-01-08T07:21:21.255Z,69.98
2019-01-08T07:23:54.713Z,70.20
2019-01-08T07:26:28.143Z,70.44
2019-01-08T07:29:01.678Z,70.81
2019-01-08T07:31:35.070Z,70.69
2019-01-08T07:34:08.446Z,70.67
2019-01-08T07:36:41.871Z,70.38
2019-01-08T07:39:15.418Z,70.23
2019-01-08T07:41:48.859Z,71.09
2019-01-08T07:44:22.315Z,70.65
2019-01-08T07:46:55.791Z,70.55
2019-01-08T07:52:08.280Z,70.23
2019-01-08T07:54:41.900Z,70.87
2019-01-08T07:57:15.487Z,70.32
2019-01-08T07:59:49.234Z,69.77
2019-01-08T08:02:22.771Z,70.43
2019-01-08T08:04:56.429Z,69.88
2019-01-08T08:07:30.028Z,70.31
2019-01-08T08:10:03.665Z,70.07
2019-01-08T08:12:37.259Z,70.17
2019-01-08T08:15:10.899Z,70.19
2019-01-08T08:17:44.410Z,70.44
2019-01-08T08:20:18.135Z,70.31
2019-01-08T08:22:51.747Z,69.94
2019-01-08T08:25:25.313Z,70.79
2019-01-08T08:27:58.911Z,70.78
2019-01-08T08:30:32.459Z,70.61
2019-01-08T08:33:06.055Z,69.92
2019-01-08T08:35:39.664Z,70.01
2019-01-08T08:38:13.248Z,70.42
2019-01-08T08:40:46.968Z,69.83
2019-01-08T08:43:20.564Z,70.48
2019-01-08T08:45:54.188Z,70.24
2019-01-08T08:48:27.774Z,70.64
2019-01-08T08:51:01.442Z,70.30
2019-01-08T08:53:35.037Z,70.29
2019-01-08T08:56:08.672Z,70.16
2019-01-08T08:58:42.270Z,70.08
2019-01-08T09:01:15.895Z,70.30
2019-01-08T09:03:49.531Z,69.85
2019-01-08T09:06:23.142Z,70.95
2019-01-08T09:08:56.749Z,70.76
2019-01-08T09:11:30.366Z,70.59
2019-01-08T09:14:03.983Z,70.74
2019-01-08T09:16:37.718Z,70.56
2019-01-08T09:19:11.342Z,70.92
2019-01-08T09:21:44.964Z,70.88
2019-01-08T09:24:18.568Z,70.59
2019-01-08T09:26:52.211Z,70.65
2019-01-08T09:29:25.847Z,70.75
2019-01-08T09:31:59.555Z,70.48
2019-01-08T09:34:33.168Z,70.51
2019-01-08T09:37:06.832Z,70.41
2019-01-08T09:39:40.502Z,70.60
2019-01-08T09:42:14.247Z,70.63
2019-01-08T09:44:47.847Z,70.28
2019-01-08T09:47:21.484Z,70.68
2019-01-08T09:49:55.111Z,70.66
2019-01-08T09:52:28.862Z,70.29
2019-01-08T09:55:02.540Z,70.15
2019-01-08T09:57:36.253Z,69.25
2019-01-08T10:00:30.644Z,70.03
2019-01-08T10:03:04.360Z,69.90
2019-01-08T10:05:37.962Z,69.63
2019-01-08T10:08:11.574Z,69.85
2019-01-08T10:10:45.203Z,69.92
2019-01-08T10:13:18.828Z,69.87
2019-01-08T10:15:52.421Z,70.09
2019-01-08T10:18:26.221Z,69.61
2019-01-08T10:20:59.854Z,69.93
2019-01-08T10:23:33.487Z,69.38
2019-01-08T10:26:07.102Z,69.12
2019-01-08T10:28:40.731Z,70.03
2019-01-08T10:31:14.327Z,69.46
2019-01-08T10:33:48.056Z,69.58
2019-01-08T10:36:21.660Z,69.41
2019-01-08T10:38:55.476Z,69.11
2019-01-08T10:41:29.089Z,68.99
2019-01-08T10:44:02.808Z,69.06
2019-01-08T10:46:37.500Z,69.01
2019-01-08T10:49:11.839Z,68.45
2019-01-08T10:51:45.435Z,68.82
2019-01-08T10:54:19.154Z,68.90
2019-01-08T10:56:52.775Z,68.84
2019-01-08T10:59:26.424Z,68.93
2019-01-08T11:02:00.020Z,68.77
2019-01-08T11:04:33.666Z,68.39
2019-01-08T11:07:07.263Z,66.76
2019-01-08T11:09:40.967Z,67.90
2019-01-08T11:12:14.678Z,68.21
2019-01-08T11:14:48.308Z,67.58
2019-01-08T11:17:21.904Z,66.99
2019-01-08T11:19:55.537Z,67.27
2019-01-08T11:22:29.131Z,64.34
2019-01-08T11:25:02.856Z,66.42
2019-01-08T11:27:36.470Z,66.64
2019-01-08T11:33:10.521Z,66.01
2019-01-08T11:35:44.115Z,65.73
2019-01-08T11:38:17.745Z,66.14
2019-01-08T11:40:51.336Z,66.03
2019-01-08T11:43:25.141Z,66.28
2019-01-08T11:45:58.741Z,65.75
2019-01-08T11:48:32.466Z,65.35
2019-01-08T11:51:06.059Z,64.73
2019-01-08T11:53:39.705Z,65.22
2019-01-08T11:56:13.345Z,64.89
2019-01-08T12:01:26.055Z,64.54
2019-01-08T12:03:59.677Z,64.12
2019-01-08T12:06:33.270Z,64.47
2019-01-08T12:09:46.758Z,63.99
2019-01-08T12:12:20.350Z,63.87
2019-01-08T12:14:54.048Z,63.77
2019-01-08T12:17:27.652Z,63.80
2019-01-08T12:20:01.362Z,63.52
2019-01-08T12:22:40.827Z,63.38
2019-01-08T12:27:49.537Z,63.08
2019-01-08T12:30:23.172Z,62.05
2019-01-08T12:32:56.753Z,62.88
2019-01-08T12:35:30.381Z,63.71
2019-01-08T12:38:03.968Z,62.94
2019-01-08T12:40:37.597Z,63.43
2019-01-08T12:43:11.192Z,63.59
2019-01-08T12:45:44.904Z,63.91
2019-01-08T12:48:18.498Z,63.66
2019-01-08T12:50:52.123Z,63.57
2019-01-08T12:53:25.748Z,63.42
2019-01-08T12:55:59.406Z,63.40
2019-01-08T12:58:32.993Z,63.65
2019-01-08T13:01:06.691Z,62.85
2019-01-08T13:03:40.279Z,63.70
2019-01-08T13:06:13.913Z,63.55
2019-01-08T13:08:47.513Z,64.10
2019-01-08T13:11:21.139Z,64.52
2019-01-08T13:13:54.723Z,64.08
2019-01-08T13:16:28.349Z,64.35
2019-01-08T13:19:01.940Z,64.66
2019-01-08T13:21:35.583Z,65.03
2019-01-08T13:24:09.178Z,65.44
2019-01-08T13:26:42.829Z,65.49
2019-01-08T13:29:16.428Z,65.78
2019-01-08T13:31:50.058Z,65.57
2019-01-08T13:34:23.668Z,65.88
2019-01-08T13:36:57.286Z,65.77
2019-01-08T13:39:30.885Z,65.54
2019-01-08T13:42:04.616Z,64.08
2019-01-08T13:44:38.216Z,65.51
2019-01-08T13:47:11.859Z,65.59
2019-01-08T13:49:46.644Z,65.47
2019-01-08T13:55:01.349Z,64.33
2019-01-08T13:57:35.722Z,65.00
2019-01-08T14:00:49.163Z,64.31
2019-01-08T14:03:22.786Z,63.90
2019-01-08T14:05:56.769Z,64.65
2019-01-08T14:08:30.399Z,65.03
2019-01-08T14:11:03.995Z,65.27
2019-01-08T14:13:37.695Z,65.55
2019-01-08T14:16:11.288Z,66.00
2019-01-08T14:18:45.011Z,66.15
2019-01-08T14:21:18.603Z,66.26
2019-01-08T14:23:52.170Z,66.47
2019-01-08T14:26:25.767Z,66.77
2019-01-08T14:31:38.175Z,67.03
2019-01-08T14:34:11.795Z,67.09
2019-01-08T14:36:45.406Z,67.08
2019-01-08T14:39:19.124Z,67.13
2019-01-08T14:41:52.721Z,67.31
2019-01-08T14:44:26.360Z,67.39
2019-01-08T14:46:59.950Z,67.24
2019-01-08T14:52:12.524Z,67.19
2019-01-08T14:54:46.148Z,67.04
2019-01-08T14:57:19.755Z,67.15
2019-01-08T14:59:53.477Z,67.04
2019-01-08T15:02:27.071Z,66.62
2019-01-08T15:05:00.705Z,66.97
2019-01-08T15:07:34.311Z,66.89
2019-01-08T15:10:47.783Z,66.18
2019-01-08T15:13:21.389Z,66.80
2019-01-08T15:15:54.995Z,66.54
2019-01-08T15:18:28.586Z,66.13
2019-01-08T15:21:02.223Z,66.56
2019-01-08T15:23:42.978Z,66.50
2019-01-08T15:26:16.611Z,66.46
2019-01-08T15:28:50.200Z,66.52
2019-01-08T15:31:23.920Z,66.29
2019-01-08T15:33:57.581Z,66.15
2019-01-08T15:36:31.204Z,66.00
2019-01-08T15:42:24.088Z,65.78
2019-01-08T15:44:57.680Z,65.61
2019-01-08T15:47:31.402Z,65.45
2019-01-08T15:50:44.829Z,65.46
2019-01-08T15:53:18.460Z,65.27
2019-01-08T15:55:52.064Z,64.94
2019-01-08T15:58:25.692Z,64.68
2019-01-08T16:00:59.281Z,64.33
2019-01-08T16:06:12.090Z,63.75
2019-01-08T16:08:45.814Z,63.40
2019-01-08T16:11:19.407Z,63.66
2019-01-08T16:13:53.128Z,64.03
2019-01-08T16:16:26.724Z,61.63
2019-01-08T16:19:00.445Z,63.45
2019-01-08T16:21:34.024Z,63.36
2019-01-08T16:24:07.653Z,63.44
2019-01-08T16:26:41.233Z,62.55
2019-01-08T16:29:14.954Z,63.16
2019-01-08T16:31:48.568Z,62.84
2019-01-08T16:37:01.372Z,62.72
2019-01-08T16:39:34.956Z,61.92
2019-01-08T16:42:08.544Z,62.96
2019-01-08T16:44:42.254Z,62.62
2019-01-08T16:50:10.063Z,62.66
2019-01-08T16:52:43.680Z,62.43
2019-01-08T16:55:17.294Z,63.05
2019-01-08T16:57:50.894Z,62.80
2019-01-08T17:00:24.438Z,63.10
2019-01-08T17:02:58.030Z,61.02
2019-01-08T17:05:31.649Z,63.17
2019-01-08T17:08:05.568Z,63.26
2019-01-08T17:10:39.279Z,63.52
2019-01-08T17:13:15.612Z,63.78
2019-01-08T17:15:49.729Z,63.53
2019-01-08T17:18:23.627Z,63.59
2019-01-08T17:20:57.250Z,63.72
2019-01-08T17:23:30.963Z,63.61
2019-01-08T17:26:04.546Z,63.39
2019-01-08T17:29:16.932Z,63.79
2019-01-08T17:31:50.510Z,63.96
2019-01-08T17:34:24.754Z,64.16
2019-01-08T17:36:58.433Z,64.53
2019-01-08T17:39:32.051Z,64.69
2019-01-08T17:42:05.626Z,64.93
2019-01-08T17:44:39.329Z,65.04
2019-01-08T17:47:12.904Z,65.26
2019-01-08T17:52:25.919Z,64.98
2019-01-08T17:54:59.718Z,64.40
2019-01-08T17:57:33.321Z,64.51
2019-01-08T18:03:07.199Z,64.13
2019-01-08T18:05:40.871Z,63.52
2019-01-08T18:08:14.758Z,63.51
2019-01-08T18:10:48.527Z,63.37
2019-01-08T18:13:22.159Z,62.86
2019-01-08T18:15:55.740Z,62.69
2019-01-08T18:18:29.375Z,62.33
2019-01-08T18:21:22.240Z,61.96
2019-01-08T18:23:55.855Z,61.96
2019-01-08T18:26:29.435Z,60.82
2019-01-08T18:29:22.323Z,61.58
2019-01-08T18:31:56.000Z,61.58
2019-01-08T18:34:48.889Z,60.96
2019-01-08T18:37:34.275Z,61.03
2019-01-08T18:40:07.913Z,61.03
2019-01-08T18:42:41.492Z,60.35
2019-01-08T18:45:34.490Z,60.47
2019-01-08T18:48:08.078Z,60.47
2019-01-08T18:51:01.005Z,60.44
2019-01-08T18:53:34.587Z,60.44
2019-01-08T18:56:08.379Z,60.41
2019-01-08T18:58:41.961Z,60.15
2019-01-08T19:01:15.678Z,60.46
2019-01-08T19:03:49.273Z,60.09
2019-01-08T19:06:42.253Z,59.80
2019-01-08T19:09:35.105Z,59.80
2019-01-08T19:12:21.413Z,60.00
2019-01-08T19:14:55.004Z,60.00
2019-01-08T19:17:28.620Z,59.77
2019-01-08T19:20:21.500Z,60.57
2019-01-08T19:22:55.224Z,60.57
2019-01-08T19:25:28.802Z,60.41
2019-01-08T19:28:02.428Z,61.11
2019-01-08T19:30:36.136Z,61.33
2019-01-08T19:33:29.138Z,61.78
2019-01-08T19:36:02.728Z,61.78
2019-01-08T19:38:36.349Z,62.06
2019-01-08T19:41:09.947Z,61.83
2019-01-08T19:43:44.774Z,61.72
2019-01-08T19:46:19.546Z,61.58
2019-01-08T19:48:53.188Z,61.36
2019-01-08T19:51:26.765Z,61.31
2019-01-08T19:54:00.392Z,61.32
2019-01-08T19:56:33.981Z,61.09
2019-01-08T19:59:26.891Z,60.59
2019-01-08T20:02:00.388Z,60.59
2019-01-08T20:04:53.293Z,59.89
2019-01-08T20:07:26.886Z,59.89
2019-01-08T20:10:19.796Z,59.87
2019-01-08T20:12:53.387Z,59.87
2019-01-08T20:15:27.085Z,59.74
2019-01-08T20:18:00.759Z,58.73
2019-01-08T20:20:53.642Z,57.68
2019-01-08T20:23:27.229Z,57.68
2019-01-08T20:26:00.843Z,59.65
2019-01-08T20:28:53.700Z,59.80
2019-01-08T20:31:27.312Z,59.80
2019-01-08T20:34:00.893Z,60.31
2019-01-08T20:36:34.523Z,59.00
2019-01-08T20:42:02.219Z,60.97
2019-01-08T20:44:35.803Z,61.49
2019-01-08T20:47:10.504Z,61.72
2019-01-08T20:49:44.012Z,62.05
2019-01-08T20:52:17.624Z,62.71
2019-01-08T20:54:51.219Z,62.96
2019-01-08T20:57:24.855Z,63.61
2019-01-08T20:59:58.446Z,63.70
2019-01-08T21:02:32.068Z,64.05
2019-01-08T21:05:45.490Z,64.17
2019-01-08T21:08:19.112Z,64.58
2019-01-08T21:10:52.702Z,64.45
2019-01-08T21:13:26.328Z,64.64
2019-01-08T21:15:59.918Z,65.09
2019-01-08T21:18:33.544Z,64.87
2019-01-08T21:21:07.158Z,65.03
2019-01-08T21:23:40.814Z,65.17
2019-01-08T21:26:14.413Z,65.48
2019-01-08T21:28:48.040Z,65.46
2019-01-08T21:31:21.734Z,66.06
2019-01-08T21:33:55.360Z,65.82
2019-01-08T21:36:28.964Z,65.97
2019-01-08T21:41:43.190Z,66.15
2019-01-08T21:44:16.910Z,66.16
2019-01-08T21:46:50.509Z,65.74
2019-01-08T21:49:24.146Z,65.94
2019-01-08T21:51:57.775Z,66.37
2019-01-08T21:54:31.398Z,65.93
2019-01-08T21:57:04.977Z,65.99
2019-01-08T21:59:38.601Z,65.85
2019-01-08T22:02:12.226Z,66.00
2019-01-08T22:04:52.912Z,66.14
2019-01-08T22:13:25.050Z,66.28
2019-01-08T22:15:58.670Z,65.48
2019-01-08T22:18:32.258Z,65.97
2019-01-08T22:21:05.984Z,66.12
2019-01-08T22:23:39.579Z,66.07
2019-01-08T22:26:13.209Z,66.16
2019-01-08T22:28:46.812Z,65.48
2019-01-08T22:31:20.542Z,66.02
2019-01-08T22:33:54.122Z,66.15
2019-01-08T22:36:27.810Z,65.97
2019-01-08T22:39:01.389Z,65.98
2019-01-08T22:41:34.940Z,66.26
2019-01-08T22:44:08.543Z,66.15
2019-01-08T22:46:42.161Z,66.34
2019-01-08T22:49:15.739Z,66.16
2019-01-08T22:51:49.362Z,66.17
2019-01-08T22:54:22.950Z,65.85
2019-01-08T22:56:56.567Z,65.71
2019-01-08T23:00:09.989Z,65.97
2019-01-08T23:02:43.632Z,66.01
2019-01-08T23:05:17.214Z,64.65
2019-01-08T23:07:50.844Z,66.03
2019-01-08T23:10:24.438Z,65.89
2019-01-08T23:12:58.094Z,65.29
2019-01-08T23:15:31.715Z,65.81
2019-01-08T23:18:05.472Z,65.97
2019-01-08T23:20:39.054Z,66.03
2019-01-08T23:23:12.697Z,65.94
2019-01-08T23:25:46.276Z,65.82
2019-01-08T23:28:19.907Z,65.75
2019-01-08T23:30:53.497Z,65.39
2019-01-08T23:33:27.197Z,65.58
2019-01-08T23:36:00.809Z,65.57
2019-01-08T23:41:13.932Z,65.47
2019-01-08T23:43:47.572Z,65.24
2019-01-08T23:46:21.202Z,65.37
2019-01-08T23:48:54.933Z,65.33
2019-01-08T23:51:28.525Z,65.16
2019-01-08T23:54:42.001Z,65.39
